createdAt,value
2019-01-16T00:01:55.396Z,9.97
2019-01-16T00:04:44.239Z,11.60
2019-01-16T00:07:40.121Z,9.70
2019-01-16T00:10:47.437Z,9.03
2019-01-16T00:13:26.421Z,8.93
2019-01-16T00:16:05.784Z,14.00
2019-01-16T00:18:53.075Z,8.70
2019-01-16T00:21:45.402Z,11.50
2019-01-16T00:24:40.032Z,9.00
2019-01-16T00:27:42.191Z,9.90
2019-01-16T00:30:30.325Z,18.90
2019-01-16T00:33:25.109Z,11.30
2019-01-16T00:36:32.493Z,11.40
2019-01-16T00:39:21.686Z,9.00
2019-01-16T00:42:09.345Z,8.60
2019-01-16T00:45:13.589Z,7.70
2019-01-16T00:48:02.392Z,10.37
2019-01-16T00:50:57.534Z,13.03
2019-01-16T00:53:49.385Z,9.13
2019-01-16T00:56:53.233Z,11.50
2019-01-16T00:59:41.019Z,8.07
2019-01-16T01:02:33.089Z,16.33
2019-01-16T01:05:28.241Z,8.30
2019-01-16T01:08:15.550Z,8.67
2019-01-16T01:11:09.466Z,11.40
2019-01-16T01:13:57.342Z,9.90
2019-01-16T01:16:49.177Z,9.17
2019-01-16T01:19:32.062Z,10.07
2019-01-16T01:22:29.894Z,13.93
2019-01-16T01:25:17.253Z,14.50
2019-01-16T01:28:14.872Z,10.33
2019-01-16T01:30:52.433Z,16.43
2019-01-16T01:33:56.719Z,17.40
2019-01-16T01:36:48.509Z,12.60
2019-01-16T01:39:37.448Z,18.27
2019-01-16T01:42:32.195Z,12.30
2019-01-16T01:45:33.053Z,10.60
2019-01-16T01:48:39.997Z,9.70
2019-01-16T01:51:22.822Z,9.73
2019-01-16T01:54:10.442Z,14.83
2019-01-16T01:56:54.829Z,13.23
2019-01-16T01:59:42.256Z,11.00
2019-01-16T02:02:23.339Z,14.67
2019-01-16T02:05:18.133Z,13.87
2019-01-16T02:08:05.528Z,12.57
2019-01-16T02:10:48.321Z,13.30
2019-01-16T02:13:40.113Z,12.23
2019-01-16T02:16:32.451Z,11.53
2019-01-16T02:19:33.261Z,15.90
2019-01-16T02:22:31.268Z,14.60
2019-01-16T02:25:19.069Z,11.27
2019-01-16T02:27:57.002Z,17.23
2019-01-16T02:30:44.643Z,16.67
2019-01-16T02:33:32.044Z,19.57
2019-01-16T02:36:20.951Z,18.43
2019-01-16T02:39:12.810Z,17.60
2019-01-16T02:42:13.799Z,14.37
2019-01-16T02:45:02.897Z,15.50
2019-01-16T02:47:50.583Z,13.90
2019-01-16T02:50:38.054Z,16.83
2019-01-16T02:53:45.366Z,18.63
2019-01-16T02:56:36.182Z,22.00
2019-01-16T02:59:23.519Z,14.70
2019-01-16T03:02:11.470Z,14.93
2019-01-16T03:05:01.003Z,13.60
2019-01-16T03:08:01.976Z,14.83
2019-01-16T03:10:43.828Z,15.17
2019-01-16T03:13:26.652Z,14.27
2019-01-16T03:16:21.691Z,16.70
2019-01-16T03:19:13.359Z,14.10
2019-01-16T03:22:11.390Z,16.77
2019-01-16T03:24:59.017Z,13.43
2019-01-16T03:27:50.830Z,15.77
2019-01-16T03:30:38.472Z,11.80
2019-01-16T03:33:20.068Z,12.60
2019-01-16T03:36:11.522Z,12.87
2019-01-16T03:38:51.415Z,15.03
2019-01-16T03:41:44.543Z,18.80
2019-01-16T03:44:26.091Z,15.10
2019-01-16T03:47:21.218Z,13.90
2019-01-16T03:50:19.799Z,16.00
2019-01-16T03:53:07.263Z,12.17
2019-01-16T03:56:11.496Z,12.90
2019-01-16T03:59:18.674Z,16.03
2019-01-16T04:02:05.834Z,16.23
2019-01-16T04:04:50.290Z,16.63
2019-01-16T04:07:39.290Z,16.63
2019-01-16T04:10:28.534Z,12.47
2019-01-16T04:13:17.803Z,21.43
2019-01-16T04:15:57.586Z,13.87
2019-01-16T04:18:45.122Z,13.67
2019-01-16T04:21:32.639Z,15.60
2019-01-16T04:24:20.523Z,13.40
2019-01-16T04:27:15.694Z,13.47
2019-01-16T04:30:03.987Z,13.00
2019-01-16T04:32:51.630Z,12.57
2019-01-16T04:35:31.039Z,13.70
2019-01-16T04:38:18.478Z,16.07
2019-01-16T04:41:10.333Z,11.73
2019-01-16T04:44:09.776Z,11.37
2019-01-16T04:46:57.439Z,17.37
2019-01-16T04:49:44.702Z,13.17
2019-01-16T04:52:33.585Z,12.43
2019-01-16T04:55:25.477Z,16.00
2019-01-16T04:58:14.179Z,9.77
2019-01-16T05:01:11.982Z,12.67
2019-01-16T05:04:01.805Z,21.30
2019-01-16T05:06:49.460Z,12.17
2019-01-16T05:09:37.502Z,13.17
2019-01-16T05:12:24.897Z,16.10
2019-01-16T05:15:13.923Z,16.27
2019-01-16T05:18:14.883Z,13.77
2019-01-16T05:21:02.266Z,16.67
2019-01-16T05:23:41.424Z,19.43
2019-01-16T05:26:42.656Z,13.70
2019-01-16T05:29:40.277Z,13.40
2019-01-16T05:32:35.138Z,18.73
2019-01-16T05:35:24.459Z,19.63
2019-01-16T05:38:02.673Z,17.23
2019-01-16T05:40:58.592Z,13.70
2019-01-16T05:43:46.516Z,17.00
2019-01-16T05:46:36.247Z,14.97
2019-01-16T05:49:25.727Z,31.00
2019-01-16T05:52:23.739Z,15.37
2019-01-16T05:55:12.576Z,17.40
2019-01-16T05:58:00.151Z,15.60
2019-01-16T06:00:48.997Z,14.57
2019-01-16T06:03:40.603Z,17.70
2019-01-16T06:06:47.710Z,15.93
2019-01-16T06:09:42.204Z,21.77
2019-01-16T06:12:46.890Z,22.13
2019-01-16T06:15:32.242Z,20.03
2019-01-16T06:18:21.488Z,16.40
2019-01-16T06:21:10.300Z,19.03
2019-01-16T06:24:02.307Z,19.27
2019-01-16T06:26:49.917Z,15.17
2019-01-16T06:29:38.839Z,16.90
2019-01-16T06:32:27.835Z,13.03
2019-01-16T06:35:29.165Z,14.83
2019-01-16T06:38:23.978Z,22.03
2019-01-16T06:41:17.296Z,22.40
2019-01-16T06:43:59.301Z,14.53
2019-01-16T06:46:53.099Z,19.50
2019-01-16T06:49:39.230Z,14.17
2019-01-16T06:52:30.877Z,17.13
2019-01-16T06:55:12.602Z,26.27
2019-01-16T06:58:01.452Z,18.87
2019-01-16T07:00:53.301Z,15.17
2019-01-16T07:03:45.777Z,17.73
2019-01-16T07:06:34.909Z,14.30
2019-01-16T07:09:16.208Z,13.90
2019-01-16T07:12:05.477Z,15.67
2019-01-16T07:14:57.494Z,19.00
2019-01-16T07:17:55.657Z,15.10
2019-01-16T07:20:40.010Z,29.53
2019-01-16T07:23:47.034Z,18.43
2019-01-16T07:26:30.328Z,17.33
2019-01-16T07:29:19.305Z,21.93
2019-01-16T07:32:08.319Z,23.30
2019-01-16T07:34:56.945Z,15.87
2019-01-16T07:37:34.186Z,32.40
2019-01-16T07:40:23.486Z,18.70
2019-01-16T07:43:10.671Z,28.47
2019-01-16T07:46:05.377Z,18.53
2019-01-16T07:48:52.695Z,22.47
2019-01-16T07:51:53.438Z,20.47
2019-01-16T07:54:31.702Z,21.20
2019-01-16T07:57:20.801Z,20.13
2019-01-16T08:00:09.772Z,21.00
2019-01-16T08:02:57.341Z,19.37
2019-01-16T08:05:49.427Z,25.60
2019-01-16T08:08:53.899Z,20.50
2019-01-16T08:11:41.709Z,21.27
2019-01-16T08:14:31.046Z,17.80
2019-01-16T08:17:19.913Z,19.73
2019-01-16T08:20:27.446Z,24.03
2019-01-16T08:23:25.282Z,30.50
2019-01-16T08:26:17.204Z,22.50
2019-01-16T08:29:09.050Z,26.93
2019-01-16T08:31:48.741Z,19.70
2019-01-16T08:34:34.896Z,22.57
2019-01-16T08:37:23.778Z,24.30
2019-01-16T08:40:21.585Z,28.27
2019-01-16T08:43:10.465Z,19.80
2019-01-16T08:46:02.612Z,20.47
2019-01-16T08:48:52.302Z,22.53
2019-01-16T08:51:59.514Z,23.33
2019-01-16T08:54:51.312Z,26.23
2019-01-16T08:57:40.130Z,20.77
2019-01-16T09:00:44.038Z,26.77
2019-01-16T09:03:32.834Z,22.03
2019-01-16T09:06:20.965Z,19.57
2019-01-16T09:09:08.414Z,16.40
2019-01-16T09:12:02.206Z,23.00
2019-01-16T09:15:00.297Z,20.50
2019-01-16T09:18:01.354Z,23.30
2019-01-16T09:20:46.285Z,18.90
2019-01-16T09:23:36.742Z,17.43
2019-01-16T09:26:25.153Z,19.10
2019-01-16T09:29:12.731Z,15.27
2019-01-16T09:32:13.514Z,14.90
2019-01-16T09:34:56.929Z,21.03
2019-01-16T09:37:45.945Z,18.70
2019-01-16T09:40:41.042Z,17.53
2019-01-16T09:43:35.893Z,17.63
2019-01-16T09:46:31.129Z,25.33
2019-01-16T09:49:14.773Z,13.97
2019-01-16T09:51:56.276Z,23.17
2019-01-16T09:54:47.909Z,17.87
2019-01-16T09:57:28.066Z,14.97
2019-01-16T10:00:26.128Z,22.37
2019-01-16T10:03:26.881Z,20.03
2019-01-16T10:06:16.734Z,19.73
2019-01-16T10:09:04.578Z,25.03
2019-01-16T10:12:05.774Z,20.17
2019-01-16T10:14:54.581Z,18.53
2019-01-16T10:17:49.622Z,23.63
2019-01-16T10:20:45.850Z,15.90
2019-01-16T10:23:27.529Z,12.33
2019-01-16T10:26:14.933Z,20.90
2019-01-16T10:29:03.193Z,17.90
2019-01-16T10:31:47.245Z,26.03
2019-01-16T10:34:33.437Z,25.40
2019-01-16T10:37:26.455Z,20.70
2019-01-16T10:40:15.314Z,17.80
2019-01-16T10:43:06.387Z,16.33
2019-01-16T10:45:49.843Z,29.00
2019-01-16T10:48:40.917Z,23.43
2019-01-16T10:51:42.480Z,17.33
2019-01-16T10:54:40.250Z,23.23
2019-01-16T10:57:37.131Z,13.00
2019-01-16T11:00:34.553Z,12.97
2019-01-16T11:03:34.318Z,13.23
2019-01-16T11:06:27.542Z,20.53
2019-01-16T11:09:25.958Z,16.80
2019-01-16T11:12:13.693Z,27.13
2019-01-16T11:15:02.797Z,26.33
2019-01-16T11:17:50.421Z,32.60
2019-01-16T11:20:37.788Z,31.33
2019-01-16T11:23:25.166Z,29.90
2019-01-16T11:26:13.941Z,26.37
2019-01-16T11:29:20.405Z,27.53
2019-01-16T11:32:17.078Z,17.13
2019-01-16T11:35:08.674Z,20.80
2019-01-16T11:38:03.974Z,14.90
2019-01-16T11:40:52.798Z,13.83
2019-01-16T11:43:47.925Z,19.17
2019-01-16T11:46:36.393Z,20.90
2019-01-16T11:49:29.470Z,18.57
2019-01-16T11:52:21.313Z,18.60
2019-01-16T11:55:13.340Z,16.20
2019-01-16T11:58:00.266Z,13.50
2019-01-16T12:00:53.148Z,11.70
2019-01-16T12:03:43.906Z,16.80
2019-01-16T12:06:45.515Z,15.07
2019-01-16T12:09:31.146Z,8.07
2019-01-16T12:12:21.173Z,11.13
2019-01-16T12:15:09.490Z,14.30
2019-01-16T12:18:00.692Z,10.23
2019-01-16T12:20:48.397Z,12.80
2019-01-16T12:23:35.718Z,10.13
2019-01-16T12:26:26.902Z,12.33
2019-01-16T12:29:25.929Z,11.73
2019-01-16T12:32:17.525Z,14.40
2019-01-16T12:35:12.069Z,19.10
2019-01-16T12:38:00.153Z,15.73
2019-01-16T12:40:49.140Z,24.43
2019-01-16T12:43:44.883Z,35.10
2019-01-16T12:46:32.734Z,16.23
2019-01-16T12:49:24.578Z,18.33
2019-01-16T12:52:07.798Z,16.93
2019-01-16T12:55:08.717Z,12.43
2019-01-16T12:58:13.490Z,12.93
2019-01-16T13:01:18.465Z,10.77
2019-01-16T13:04:16.617Z,13.87
2019-01-16T13:07:04.013Z,10.67
2019-01-16T13:10:07.905Z,13.60
2019-01-16T13:12:57.209Z,10.37
2019-01-16T13:15:46.152Z,11.33
2019-01-16T13:18:37.756Z,13.67
2019-01-16T13:21:25.459Z,9.97
2019-01-16T13:24:14.296Z,8.40
2019-01-16T13:27:03.209Z,8.90
2019-01-16T13:30:07.067Z,8.63
2019-01-16T13:33:03.819Z,15.43
2019-01-16T13:35:55.588Z,15.77
2019-01-16T13:38:43.145Z,15.20
2019-01-16T13:41:30.287Z,14.53
2019-01-16T13:44:17.645Z,17.57
2019-01-16T13:47:18.749Z,11.67
2019-01-16T13:50:06.548Z,12.63
2019-01-16T13:52:54.190Z,9.80
2019-01-16T13:55:43.123Z,14.43
2019-01-16T13:58:21.699Z,9.10
2019-01-16T14:01:12.446Z,13.20
2019-01-16T14:03:59.345Z,12.00
2019-01-16T14:06:46.997Z,10.20
2019-01-16T14:09:38.665Z,10.53
2019-01-16T14:12:26.489Z,14.40
2019-01-16T14:15:13.691Z,15.63
2019-01-16T14:18:14.200Z,12.20
2019-01-16T14:21:01.712Z,10.27
2019-01-16T14:23:50.588Z,14.20
2019-01-16T14:26:37.885Z,15.47
2019-01-16T14:29:25.636Z,13.43
2019-01-16T14:32:14.586Z,13.07
2019-01-16T14:35:02.205Z,16.70
2019-01-16T14:37:50.276Z,11.20
2019-01-16T14:40:35.717Z,12.10
2019-01-16T14:43:18.442Z,13.90
2019-01-16T14:46:19.558Z,15.33
2019-01-16T14:49:05.836Z,8.57
2019-01-16T14:52:06.568Z,21.57
2019-01-16T14:54:58.353Z,25.90
2019-01-16T14:57:46.049Z,29.03
2019-01-16T15:00:33.797Z,17.53
2019-01-16T15:03:22.630Z,11.87
2019-01-16T15:06:14.401Z,14.73
2019-01-16T15:09:02.044Z,8.60
2019-01-16T15:11:43.804Z,16.10
2019-01-16T15:14:35.765Z,13.30
2019-01-16T15:17:43.669Z,13.30
2019-01-16T15:20:31.590Z,15.47
2019-01-16T15:23:18.811Z,19.23
2019-01-16T15:25:58.474Z,18.07
2019-01-16T15:28:47.410Z,19.97
2019-01-16T15:31:39.097Z,14.57
2019-01-16T15:34:23.565Z,15.40
2019-01-16T15:37:15.642Z,20.73
2019-01-16T15:40:04.686Z,12.47
2019-01-16T15:43:08.916Z,11.87
2019-01-16T15:46:00.269Z,10.00
2019-01-16T15:48:58.074Z,16.70
2019-01-16T15:51:53.033Z,20.23
2019-01-16T15:54:41.493Z,13.10
2019-01-16T15:57:48.750Z,21.37
2019-01-16T16:00:43.376Z,15.63
2019-01-16T16:03:32.421Z,19.47
2019-01-16T16:06:36.213Z,19.63
2019-01-16T16:09:28.050Z,18.37
2019-01-16T16:12:19.738Z,14.50
2019-01-16T16:15:08.014Z,21.47
2019-01-16T16:17:59.617Z,14.87
2019-01-16T16:20:47.057Z,23.70
2019-01-16T16:23:32.905Z,27.20
2019-01-16T16:26:33.951Z,23.17
2019-01-16T16:29:28.834Z,16.87
2019-01-16T16:32:09.861Z,21.80
2019-01-16T16:34:57.350Z,21.00
2019-01-16T16:37:53.319Z,26.13
2019-01-16T16:40:42.131Z,22.93
2019-01-16T16:43:30.937Z,26.70
2019-01-16T16:46:18.657Z,32.93
2019-01-16T16:49:25.613Z,29.50
2019-01-16T16:52:13.247Z,26.07
2019-01-16T16:55:01.515Z,40.03
2019-01-16T16:58:08.557Z,47.17
2019-01-16T17:00:57.207Z,44.63
2019-01-16T17:03:46.133Z,31.07
2019-01-16T17:06:50.044Z,40.83
2019-01-16T17:09:37.271Z,58.30
2019-01-16T17:12:38.147Z,58.27
2019-01-16T17:15:27.770Z,36.43
2019-01-16T17:18:22.501Z,47.77
2019-01-16T17:21:10.117Z,25.13
2019-01-16T17:24:01.807Z,46.63
2019-01-16T17:26:44.768Z,41.50
2019-01-16T17:29:45.659Z,32.00
2019-01-16T17:32:37.842Z,28.70
2019-01-16T17:35:33.290Z,38.43
2019-01-16T17:38:20.042Z,46.53
2019-01-16T17:41:08.424Z,59.27
2019-01-16T17:43:55.769Z,54.10
2019-01-16T17:46:49.049Z,53.13
2019-01-16T17:49:38.013Z,43.90
2019-01-16T17:52:44.886Z,60.73
2019-01-16T17:55:32.166Z,70.50
2019-01-16T17:58:35.953Z,76.43
2019-01-16T18:01:42.841Z,37.90
2019-01-16T18:04:34.745Z,39.10
2019-01-16T18:07:29.100Z,24.27
2019-01-16T18:10:10.569Z,61.07
2019-01-16T18:13:08.494Z,105.53
2019-01-16T18:16:04.160Z,95.63
2019-01-16T18:19:02.040Z,94.40
2019-01-16T18:21:49.279Z,38.33
2019-01-16T18:24:33.917Z,158.80
2019-01-16T18:27:21.529Z,119.53
2019-01-16T18:30:10.924Z,100.87
2019-01-16T18:33:06.093Z,47.17
2019-01-16T18:35:44.705Z,63.20
2019-01-16T18:38:32.117Z,52.90
2019-01-16T18:41:20.974Z,71.40
2019-01-16T18:44:18.766Z,26.47
2019-01-16T18:47:06.408Z,50.17
2019-01-16T18:50:04.517Z,54.47
2019-01-16T18:52:51.601Z,64.67
2019-01-16T18:55:45.251Z,39.43
2019-01-16T18:58:22.237Z,105.07
2019-01-16T19:01:17.002Z,48.47
2019-01-16T19:03:52.033Z,25.07
2019-01-16T19:06:59.314Z,59.37
2019-01-16T19:09:51.223Z,123.47
2019-01-16T19:12:42.765Z,98.00
2019-01-16T19:15:32.926Z,53.00
2019-01-16T19:18:21.831Z,58.27
2019-01-16T19:21:10.985Z,60.67
2019-01-16T19:24:02.978Z,34.80
2019-01-16T19:26:50.825Z,48.23
2019-01-16T19:29:44.301Z,46.47
2019-01-16T19:32:27.933Z,57.87
2019-01-16T19:35:15.546Z,26.73
2019-01-16T19:38:07.354Z,21.80
2019-01-16T19:40:55.437Z,38.00
2019-01-16T19:43:44.860Z,38.57
2019-01-16T19:46:43.555Z,28.60
2019-01-16T19:49:38.629Z,61.30
2019-01-16T19:52:27.518Z,47.50
2019-01-16T19:55:14.983Z,96.57
2019-01-16T19:58:04.245Z,33.87
2019-01-16T20:00:56.142Z,36.17
2019-01-16T20:03:51.181Z,23.83
2019-01-16T20:06:46.478Z,29.73
2019-01-16T20:09:44.468Z,33.77
2019-01-16T20:12:36.181Z,35.53
2019-01-16T20:15:23.228Z,23.97
2019-01-16T20:18:12.174Z,44.87
2019-01-16T20:21:00.545Z,41.30
2019-01-16T20:24:02.514Z,63.37
2019-01-16T20:26:41.757Z,53.07
2019-01-16T20:29:31.007Z,102.27
2019-01-16T20:32:34.543Z,23.67
2019-01-16T20:35:23.922Z,39.27
2019-01-16T20:38:22.054Z,40.63
2019-01-16T20:41:11.325Z,24.20
2019-01-16T20:44:02.140Z,26.63
2019-01-16T20:46:46.872Z,36.90
2019-01-16T20:49:34.153Z,40.50
2019-01-16T20:52:38.202Z,26.10
2019-01-16T20:55:33.754Z,34.13
2019-01-16T20:58:21.366Z,21.33
2019-01-16T21:01:19.229Z,18.73
2019-01-16T21:04:08.889Z,20.80
2019-01-16T21:07:00.789Z,19.17
2019-01-16T21:09:48.398Z,30.90
2019-01-16T21:12:43.264Z,30.70
2019-01-16T21:15:32.346Z,39.17
2019-01-16T21:18:24.233Z,28.13
2019-01-16T21:21:22.499Z,31.70
2019-01-16T21:24:09.849Z,23.60
2019-01-16T21:26:58.940Z,18.30
2019-01-16T21:29:47.682Z,21.40
2019-01-16T21:32:39.337Z,32.13
2019-01-16T21:35:27.434Z,23.23
2019-01-16T21:38:25.785Z,21.10
2019-01-16T21:41:13.282Z,33.53
2019-01-16T21:44:05.987Z,19.27
2019-01-16T21:46:57.996Z,42.03
2019-01-16T21:49:58.896Z,24.53
2019-01-16T21:52:44.884Z,17.97
2019-01-16T21:55:23.766Z,23.90
2019-01-16T21:58:21.501Z,19.27
2019-01-16T22:01:13.453Z,17.30
2019-01-16T22:04:18.746Z,26.67
2019-01-16T22:07:16.812Z,14.07
2019-01-16T22:10:06.183Z,17.17
2019-01-16T22:12:58.489Z,16.60
2019-01-16T22:16:02.451Z,23.57
2019-01-16T22:18:49.788Z,15.00
2019-01-16T22:21:41.405Z,18.27
2019-01-16T22:24:22.284Z,15.17
2019-01-16T22:27:14.104Z,13.73
2019-01-16T22:30:21.172Z,15.73
2019-01-16T22:33:08.361Z,19.17
2019-01-16T22:36:05.600Z,41.80
2019-01-16T22:39:00.146Z,19.83
2019-01-16T22:42:01.142Z,15.70
2019-01-16T22:44:53.861Z,23.50
2019-01-16T22:47:52.026Z,23.53
2019-01-16T22:50:38.957Z,16.30
2019-01-16T22:53:26.217Z,17.83
2019-01-16T22:56:15.022Z,14.47
2019-01-16T22:59:21.629Z,24.17
2019-01-16T23:02:14.281Z,22.90
2019-01-16T23:05:05.257Z,17.03
2019-01-16T23:07:58.086Z,19.03
2019-01-16T23:10:38.989Z,17.57
2019-01-16T23:13:31.033Z,10.97
2019-01-16T23:16:14.220Z,14.40
2019-01-16T23:19:05.006Z,14.77
2019-01-16T23:21:56.617Z,20.43
2019-01-16T23:24:41.168Z,11.33
2019-01-16T23:27:28.992Z,16.73
2019-01-16T23:30:18.053Z,12.43
2019-01-16T23:32:58.691Z,16.37
2019-01-16T23:35:46.296Z,16.43
2019-01-16T23:38:33.144Z,9.90
2019-01-16T23:41:40.385Z,17.83
2019-01-16T23:44:31.141Z,20.90
2019-01-16T23:47:17.569Z,15.83
2019-01-16T23:50:15.381Z,18.47
2019-01-16T23:53:16.182Z,25.43
2019-01-16T23:56:07.516Z,27.50
2019-01-16T23:58:50.516Z,13.67
